createdAt,value
2018-12-12T00:00:27.395Z,0.00
2018-12-12T00:01:27.567Z,0.00
2018-12-12T00:02:27.739Z,0.00
2018-12-12T00:03:27.918Z,0.00
2018-12-12T00:04:28.085Z,0.00
2018-12-12T00:05:28.260Z,0.00
2018-12-12T00:06:28.427Z,0.00
2018-12-12T00:07:28.599Z,0.00
2018-12-12T00:08:28.814Z,0.00
2018-12-12T00:09:28.941Z,0.00
2018-12-12T00:10:29.115Z,0.00
2018-12-12T00:11:29.286Z,0.00
2018-12-12T00:12:29.465Z,0.00
2018-12-12T00:13:29.631Z,0.00
2018-12-12T00:14:29.797Z,0.00
2018-12-12T00:15:29.963Z,0.00
2018-12-12T00:16:30.136Z,0.00
2018-12-12T00:17:30.317Z,0.00
2018-12-12T00:18:30.482Z,0.00
2018-12-12T00:19:30.655Z,0.00
2018-12-12T00:20:30.834Z,0.00
2018-12-12T00:21:30.995Z,0.00
2018-12-12T00:22:31.173Z,0.00
2018-12-12T00:23:31.340Z,0.00
2018-12-12T00:24:31.514Z,0.00
2018-12-12T00:25:31.685Z,0.00
2018-12-12T00:26:31.875Z,0.00
2018-12-12T00:27:32.037Z,0.00
2018-12-12T00:28:32.200Z,0.00
2018-12-12T00:29:32.375Z,0.00
2018-12-12T00:30:32.534Z,0.00
2018-12-12T00:31:32.707Z,0.00
2018-12-12T00:32:32.892Z,0.00
2018-12-12T00:33:33.048Z,0.00
2018-12-12T00:34:33.227Z,0.00
2018-12-12T00:35:33.390Z,0.00
2018-12-12T00:36:33.569Z,0.00
2018-12-12T00:37:33.734Z,0.00
2018-12-12T00:38:33.915Z,0.00
2018-12-12T00:39:34.086Z,0.00
2018-12-12T00:40:34.266Z,0.00
2018-12-12T00:41:34.447Z,0.00
2018-12-12T00:42:34.603Z,0.00
2018-12-12T00:43:34.774Z,0.00
2018-12-12T00:44:34.952Z,0.00
2018-12-12T00:45:35.120Z,0.00
2018-12-12T00:46:35.290Z,0.00
2018-12-12T00:47:35.460Z,0.00
2018-12-12T00:48:35.630Z,0.00
2018-12-12T00:49:35.803Z,0.00
2018-12-12T00:50:35.979Z,0.00
2018-12-12T00:51:36.153Z,0.00
2018-12-12T00:52:36.324Z,0.00
2018-12-12T00:53:36.500Z,0.00
2018-12-12T00:54:36.672Z,0.00
2018-12-12T00:55:36.834Z,0.00
2018-12-12T00:56:37.024Z,0.00
2018-12-12T00:57:37.179Z,0.00
2018-12-12T00:58:37.351Z,0.00
2018-12-12T00:59:37.526Z,0.00
2018-12-12T01:00:37.700Z,0.00
2018-12-12T01:01:37.879Z,0.00
2018-12-12T01:02:38.053Z,0.00
2018-12-12T01:03:38.223Z,0.00
2018-12-12T01:04:38.395Z,0.00
2018-12-12T01:06:38.731Z,0.00
2018-12-12T01:07:38.911Z,0.00
2018-12-12T01:08:39.075Z,0.00
2018-12-12T01:09:39.255Z,0.00
2018-12-12T01:10:39.419Z,0.00
2018-12-12T01:11:39.591Z,0.00
2018-12-12T01:12:39.760Z,0.00
2018-12-12T01:13:39.938Z,0.00
2018-12-12T01:14:40.106Z,0.00
2018-12-12T01:15:40.276Z,0.00
2018-12-12T01:16:40.453Z,0.00
2018-12-12T01:17:40.621Z,0.00
2018-12-12T01:18:40.791Z,0.00
2018-12-12T01:19:40.966Z,0.00
2018-12-12T01:20:41.135Z,0.00
2018-12-12T01:21:41.313Z,0.00
2018-12-12T01:22:41.484Z,0.00
2018-12-12T01:23:41.649Z,0.00
2018-12-12T01:24:41.817Z,0.00
2018-12-12T01:25:42.001Z,0.00
2018-12-12T01:26:42.162Z,0.00
2018-12-12T01:27:42.332Z,0.00
2018-12-12T01:28:42.501Z,0.00
2018-12-12T01:29:42.677Z,0.00
2018-12-12T01:30:42.850Z,0.00
2018-12-12T01:31:43.040Z,0.00
2018-12-12T01:32:43.199Z,0.00
2018-12-12T01:33:43.365Z,0.00
2018-12-12T01:34:43.600Z,0.00
2018-12-12T01:35:43.714Z,0.00
2018-12-12T01:36:43.880Z,0.00
2018-12-12T01:37:44.058Z,0.00
2018-12-12T01:38:44.227Z,0.00
2018-12-12T01:39:44.398Z,0.00
2018-12-12T01:40:44.571Z,0.00
2018-12-12T01:41:44.737Z,0.00
2018-12-12T01:42:44.915Z,0.00
2018-12-12T01:43:45.088Z,0.00
2018-12-12T01:44:45.267Z,0.00
2018-12-12T01:45:45.432Z,0.00
2018-12-12T01:46:45.605Z,0.00
2018-12-12T01:47:45.777Z,0.00
2018-12-12T01:48:45.948Z,0.00
2018-12-12T01:49:46.129Z,0.00
2018-12-12T01:50:46.325Z,0.00
2018-12-12T01:51:46.470Z,0.00
2018-12-12T01:52:46.641Z,0.00
2018-12-12T01:53:46.820Z,0.00
2018-12-12T01:54:46.979Z,0.00
2018-12-12T01:55:47.155Z,0.00
2018-12-12T01:56:47.329Z,0.00
2018-12-12T01:57:47.506Z,0.00
2018-12-12T01:58:47.679Z,0.00
2018-12-12T01:59:47.843Z,0.00
2018-12-12T02:00:48.019Z,0.00
2018-12-12T02:01:48.181Z,0.00
2018-12-12T02:02:48.370Z,0.00
2018-12-12T02:03:48.533Z,0.00
2018-12-12T02:04:48.701Z,0.00
2018-12-12T02:05:48.879Z,0.00
2018-12-12T02:06:49.064Z,0.00
2018-12-12T02:07:49.229Z,0.00
2018-12-12T02:08:49.402Z,0.00
2018-12-12T02:09:49.574Z,0.00
2018-12-12T02:10:49.755Z,0.00
2018-12-12T02:11:49.932Z,0.00
2018-12-12T02:12:50.086Z,0.00
2018-12-12T02:13:50.314Z,0.00
2018-12-12T02:14:50.440Z,0.00
2018-12-12T02:15:50.612Z,0.00
2018-12-12T02:16:50.795Z,0.00
2018-12-12T02:17:50.972Z,0.00
2018-12-12T02:18:51.147Z,0.00
2018-12-12T02:19:51.309Z,0.00
2018-12-12T02:20:51.482Z,0.00
2018-12-12T02:21:51.659Z,0.00
2018-12-12T02:22:51.830Z,0.00
2018-12-12T02:23:52.011Z,0.00
2018-12-12T02:24:52.169Z,0.00
2018-12-12T02:25:52.332Z,0.00
2018-12-12T02:26:52.513Z,0.00
2018-12-12T02:27:52.684Z,0.00
2018-12-12T02:28:52.863Z,0.00
2018-12-12T02:29:53.031Z,0.00
2018-12-12T02:30:53.202Z,0.00
2018-12-12T02:31:53.386Z,0.00
2018-12-12T02:32:53.546Z,0.00
2018-12-12T02:33:53.718Z,0.00
2018-12-12T02:34:53.896Z,0.00
2018-12-12T02:35:54.116Z,0.00
2018-12-12T02:36:54.239Z,0.00
2018-12-12T02:37:54.407Z,0.00
2018-12-12T02:38:54.580Z,0.00
2018-12-12T02:39:54.759Z,0.00
2018-12-12T02:40:54.926Z,0.00
2018-12-12T02:41:55.109Z,0.00
2018-12-12T02:42:55.273Z,0.00
2018-12-12T02:43:55.456Z,0.00
2018-12-12T02:44:55.622Z,0.00
2018-12-12T02:45:55.787Z,0.00
2018-12-12T02:46:55.959Z,0.00
2018-12-12T02:47:56.129Z,0.00
2018-12-12T02:48:56.298Z,0.00
2018-12-12T02:49:56.488Z,0.00
2018-12-12T02:50:56.647Z,0.00
2018-12-12T02:51:56.814Z,0.00
2018-12-12T02:52:56.992Z,0.00
2018-12-12T02:53:57.157Z,0.00
2018-12-12T02:54:57.332Z,0.00
2018-12-12T02:55:57.502Z,0.00
2018-12-12T02:56:57.669Z,0.00
2018-12-12T02:57:57.840Z,0.00
2018-12-12T02:58:58.019Z,0.00
2018-12-12T02:59:58.186Z,0.00
2018-12-12T03:00:58.369Z,0.00
2018-12-12T03:01:58.535Z,0.00
2018-12-12T03:02:58.732Z,0.00
2018-12-12T03:03:58.875Z,0.00
2018-12-12T03:04:59.048Z,0.00
2018-12-12T03:05:59.225Z,0.00
2018-12-12T03:06:59.400Z,0.00
2018-12-12T03:07:59.573Z,0.00
2018-12-12T03:08:59.789Z,0.00
2018-12-12T03:09:59.927Z,0.00
2018-12-12T03:11:00.088Z,0.00
2018-12-12T03:12:00.263Z,0.00
2018-12-12T03:13:00.435Z,0.00
2018-12-12T03:14:00.599Z,0.00
2018-12-12T03:15:00.770Z,0.00
2018-12-12T03:16:00.928Z,0.00
2018-12-12T03:17:01.098Z,0.00
2018-12-12T03:18:01.272Z,0.00
2018-12-12T03:19:01.443Z,0.00
2018-12-12T03:20:01.627Z,0.00
2018-12-12T03:21:01.798Z,0.00
2018-12-12T03:22:02.001Z,0.00
2018-12-12T03:23:02.166Z,0.00
2018-12-12T03:24:02.338Z,0.00
2018-12-12T03:25:02.516Z,0.00
2018-12-12T03:26:02.683Z,0.00
2018-12-12T03:27:02.856Z,0.00
2018-12-12T03:28:03.031Z,0.00
2018-12-12T03:29:03.209Z,0.00
2018-12-12T03:30:03.384Z,0.00
2018-12-12T03:31:03.551Z,0.00
2018-12-12T03:32:03.723Z,0.00
2018-12-12T03:33:03.886Z,0.00
2018-12-12T03:34:04.057Z,0.00
2018-12-12T03:35:04.232Z,0.00
2018-12-12T03:36:04.448Z,0.00
2018-12-12T03:37:04.616Z,0.00
2018-12-12T03:38:04.788Z,0.00
2018-12-12T03:39:04.956Z,0.00
2018-12-12T03:40:05.127Z,0.00
2018-12-12T03:41:05.307Z,0.00
2018-12-12T03:42:05.474Z,0.00
2018-12-12T03:43:05.649Z,0.00
2018-12-12T03:44:05.821Z,0.00
2018-12-12T03:45:05.990Z,0.00
2018-12-12T03:46:06.158Z,0.00
2018-12-12T03:47:06.334Z,0.00
2018-12-12T03:48:06.513Z,0.00
2018-12-12T03:49:06.680Z,0.00
2018-12-12T03:50:06.851Z,0.00
2018-12-12T03:51:07.021Z,0.00
2018-12-12T03:52:07.194Z,0.00
2018-12-12T03:53:07.367Z,0.00
2018-12-12T03:54:07.540Z,0.00
2018-12-12T03:55:07.713Z,0.00
2018-12-12T03:56:07.898Z,0.00
2018-12-12T03:57:08.076Z,0.00
2018-12-12T03:58:08.295Z,0.00
2018-12-12T03:59:08.461Z,0.00
2018-12-12T04:00:08.625Z,0.00
2018-12-12T04:01:08.796Z,0.00
2018-12-12T04:02:08.975Z,0.00
2018-12-12T04:03:09.136Z,0.00
2018-12-12T04:04:09.309Z,0.00
2018-12-12T04:05:09.506Z,0.00
2018-12-12T04:06:09.664Z,0.00
2018-12-12T04:07:09.913Z,0.00
2018-12-12T04:08:10.014Z,0.00
2018-12-12T04:09:10.177Z,0.00
2018-12-12T04:10:10.355Z,0.00
2018-12-12T04:11:10.522Z,0.00
2018-12-12T04:12:10.695Z,0.00
2018-12-12T04:13:10.866Z,0.00
2018-12-12T04:14:11.046Z,0.00
2018-12-12T04:15:11.215Z,0.00
2018-12-12T04:16:11.391Z,0.00
2018-12-12T04:17:12.207Z,0.00
2018-12-12T04:18:11.726Z,0.00
2018-12-12T04:19:11.894Z,0.00
2018-12-12T04:20:12.075Z,0.00
2018-12-12T04:21:12.252Z,0.00
2018-12-12T04:22:12.421Z,0.00
2018-12-12T04:23:12.603Z,0.00
2018-12-12T04:24:12.775Z,0.00
2018-12-12T04:25:12.953Z,0.00
2018-12-12T04:26:13.123Z,0.00
2018-12-12T04:27:13.296Z,0.00
2018-12-12T04:28:13.466Z,0.00
2018-12-12T04:29:13.644Z,0.00
2018-12-12T04:30:13.807Z,0.00
2018-12-12T04:31:13.979Z,0.00
2018-12-12T04:32:14.152Z,0.00
2018-12-12T04:33:14.326Z,0.00
2018-12-12T04:34:14.501Z,0.00
2018-12-12T04:35:14.669Z,0.00
2018-12-12T04:36:14.840Z,0.00
2018-12-12T04:37:15.015Z,0.00
2018-12-12T04:38:15.187Z,0.00
2018-12-12T04:39:15.357Z,0.00
2018-12-12T04:40:15.531Z,0.00
2018-12-12T04:41:15.702Z,0.00
2018-12-12T04:42:15.919Z,0.00
2018-12-12T04:43:16.041Z,0.00
2018-12-12T04:44:16.210Z,0.00
2018-12-12T04:45:16.382Z,0.00
2018-12-12T04:46:16.555Z,0.00
2018-12-12T04:47:16.722Z,0.00
2018-12-12T04:48:16.899Z,0.00
2018-12-12T04:49:17.075Z,0.00
2018-12-12T04:50:17.238Z,0.00
2018-12-12T04:51:17.411Z,0.00
2018-12-12T04:52:17.585Z,0.00
2018-12-12T04:53:17.764Z,0.00
2018-12-12T04:54:17.929Z,0.00
2018-12-12T04:55:18.097Z,0.00
2018-12-12T04:56:18.268Z,0.00
2018-12-12T04:57:18.431Z,0.00
2018-12-12T04:58:18.604Z,0.00
2018-12-12T04:59:18.772Z,0.00
2018-12-12T05:00:18.947Z,0.00
2018-12-12T05:01:19.113Z,0.00
2018-12-12T05:02:19.287Z,0.00
2018-12-12T05:03:19.460Z,0.00
2018-12-12T05:04:19.631Z,0.00
2018-12-12T05:05:19.818Z,0.00
2018-12-12T05:06:19.988Z,0.00
2018-12-12T05:07:20.147Z,0.00
2018-12-12T05:08:20.342Z,0.00
2018-12-12T05:09:20.511Z,0.00
2018-12-12T05:10:20.679Z,0.00
2018-12-12T05:11:20.853Z,0.00
2018-12-12T05:12:21.030Z,0.00
2018-12-12T05:13:21.191Z,0.00
2018-12-12T05:14:21.368Z,0.00
2018-12-12T05:15:21.542Z,0.00
2018-12-12T05:16:21.714Z,0.00
2018-12-12T05:17:21.890Z,0.00
2018-12-12T05:18:22.057Z,0.00
2018-12-12T05:19:22.225Z,0.00
2018-12-12T05:20:22.396Z,0.00
2018-12-12T05:21:22.631Z,0.00
2018-12-12T05:22:22.746Z,0.00
2018-12-12T05:23:22.918Z,0.00
2018-12-12T05:24:23.091Z,0.00
2018-12-12T05:25:23.262Z,0.00
2018-12-12T05:26:23.448Z,0.00
2018-12-12T05:27:23.603Z,0.00
2018-12-12T05:28:23.785Z,0.00
2018-12-12T05:29:23.944Z,0.00
2018-12-12T05:30:24.119Z,0.00
2018-12-12T05:31:24.287Z,0.00
2018-12-12T05:32:24.459Z,0.00
2018-12-12T05:33:24.633Z,0.00
2018-12-12T05:34:24.808Z,0.00
2018-12-12T05:35:24.993Z,0.00
2018-12-12T05:36:25.152Z,0.00
2018-12-12T05:37:25.324Z,0.00
2018-12-12T05:38:25.500Z,0.00
2018-12-12T05:39:25.688Z,0.00
2018-12-12T05:40:25.837Z,0.00
2018-12-12T05:41:26.012Z,0.00
2018-12-12T05:42:26.187Z,0.00
2018-12-12T05:43:26.357Z,0.00
2018-12-12T05:44:26.523Z,0.00
2018-12-12T05:45:26.691Z,0.00
2018-12-12T05:46:26.864Z,0.00
2018-12-12T05:47:27.037Z,0.00
2018-12-12T05:48:27.217Z,0.00
2018-12-12T05:49:27.395Z,0.00
2018-12-12T05:50:27.578Z,0.00
2018-12-12T05:51:27.736Z,0.00
2018-12-12T05:52:27.901Z,0.00
2018-12-12T05:53:28.076Z,0.00
2018-12-12T05:54:28.250Z,0.00
2018-12-12T05:55:28.899Z,0.00
2018-12-12T05:56:28.584Z,0.00
2018-12-12T05:57:28.757Z,0.00
2018-12-12T05:58:28.930Z,0.00
2018-12-12T05:59:29.109Z,0.00
2018-12-12T06:00:29.287Z,0.00
2018-12-12T06:01:29.548Z,0.00
2018-12-12T06:02:29.628Z,0.00
2018-12-12T06:03:29.796Z,0.00
2018-12-12T06:04:29.971Z,0.00
2018-12-12T06:05:30.144Z,0.00
2018-12-12T06:06:30.314Z,0.00
2018-12-12T06:07:30.498Z,0.00
2018-12-12T06:08:30.674Z,0.00
2018-12-12T06:09:30.846Z,0.00
2018-12-12T06:10:31.031Z,0.00
2018-12-12T06:11:31.190Z,0.00
2018-12-12T06:12:31.368Z,0.00
2018-12-12T06:13:31.561Z,0.00
2018-12-12T06:14:31.726Z,0.00
2018-12-12T06:15:31.892Z,0.00
2018-12-12T06:16:32.084Z,0.00
2018-12-12T06:17:32.241Z,0.00
2018-12-12T06:18:32.416Z,0.00
2018-12-12T06:19:32.590Z,0.00
2018-12-12T06:21:32.929Z,0.00
2018-12-12T06:22:37.616Z,0.00
2018-12-12T06:23:33.270Z,0.00
2018-12-12T06:24:33.451Z,0.00
2018-12-12T06:25:33.656Z,0.00
2018-12-12T06:26:37.314Z,0.00
2018-12-12T06:27:33.995Z,0.00
2018-12-12T06:28:34.153Z,0.00
2018-12-12T06:29:34.329Z,0.00
2018-12-12T06:30:34.488Z,0.00
2018-12-12T06:31:34.670Z,0.00
2018-12-12T06:32:35.730Z,0.00
2018-12-12T06:33:35.008Z,0.00
2018-12-12T06:34:35.253Z,0.00
2018-12-12T06:35:35.375Z,0.00
2018-12-12T06:36:35.551Z,0.00
2018-12-12T06:37:35.716Z,0.00
2018-12-12T06:38:35.938Z,0.00
2018-12-12T06:39:36.055Z,0.00
2018-12-12T06:40:36.230Z,0.00
2018-12-12T06:41:36.407Z,0.00
2018-12-12T06:42:36.565Z,0.00
2018-12-12T06:43:36.741Z,0.00
2018-12-12T06:44:36.942Z,0.00
2018-12-12T06:45:37.091Z,0.00
2018-12-12T06:46:37.263Z,0.00
2018-12-12T06:47:37.433Z,4.00
2018-12-12T06:48:37.603Z,4.00
2018-12-12T06:49:37.780Z,0.00
2018-12-12T06:50:37.950Z,4.00
2018-12-12T06:51:38.122Z,4.00
2018-12-12T06:52:38.309Z,4.00
2018-12-12T06:53:38.466Z,4.00
2018-12-12T06:54:38.653Z,4.00
2018-12-12T06:55:38.827Z,4.00
2018-12-12T06:56:39.002Z,4.00
2018-12-12T06:57:39.170Z,4.00
2018-12-12T06:58:39.346Z,4.00
2018-12-12T06:59:39.520Z,8.00
2018-12-12T07:00:39.708Z,8.00
2018-12-12T07:01:39.862Z,8.00
2018-12-12T07:02:40.053Z,8.00
2018-12-12T07:03:40.215Z,12.00
2018-12-12T07:04:40.396Z,12.00
2018-12-12T07:05:40.564Z,16.00
2018-12-12T07:06:40.748Z,16.00
2018-12-12T07:07:40.907Z,16.00
2018-12-12T07:08:41.081Z,20.00
2018-12-12T07:09:41.276Z,20.00
2018-12-12T07:10:41.431Z,24.00
2018-12-12T07:11:41.603Z,24.00
2018-12-12T07:12:41.786Z,24.00
2018-12-12T07:13:41.953Z,24.00
2018-12-12T07:14:42.116Z,28.00
2018-12-12T07:15:42.296Z,28.00
2018-12-12T07:16:42.460Z,28.00
2018-12-12T07:17:42.632Z,28.00
2018-12-12T07:18:42.800Z,32.00
2018-12-12T07:19:42.967Z,36.00
2018-12-12T07:20:43.145Z,32.00
2018-12-12T07:21:43.309Z,36.00
2018-12-12T07:22:43.469Z,36.00
2018-12-12T07:23:43.636Z,40.00
2018-12-12T07:24:43.812Z,44.00
2018-12-12T07:25:43.989Z,48.00
2018-12-12T07:26:44.159Z,56.00
2018-12-12T07:27:44.327Z,64.00
2018-12-12T07:28:44.680Z,76.00
2018-12-12T07:29:44.675Z,88.00
2018-12-12T07:30:44.836Z,116.00
2018-12-12T07:31:45.001Z,148.00
2018-12-12T07:32:45.162Z,176.00
2018-12-12T07:33:45.344Z,188.00
2018-12-12T07:34:45.506Z,196.00
2018-12-12T07:35:45.679Z,208.00
2018-12-12T07:36:45.847Z,220.00
2018-12-12T07:37:46.026Z,236.00
2018-12-12T07:38:46.199Z,244.00
2018-12-12T07:39:46.358Z,248.00
2018-12-12T07:40:46.541Z,256.00
2018-12-12T07:41:46.698Z,260.00
2018-12-12T07:42:46.874Z,268.00
2018-12-12T07:43:47.047Z,272.00
2018-12-12T07:44:47.224Z,272.00
2018-12-12T07:45:47.390Z,272.00
2018-12-12T07:46:47.623Z,264.00
2018-12-12T07:47:47.726Z,252.00
2018-12-12T07:48:47.898Z,244.00
2018-12-12T07:49:48.073Z,240.00
2018-12-12T07:50:48.246Z,240.00
2018-12-12T07:51:48.431Z,244.00
2018-12-12T07:52:48.609Z,252.00
2018-12-12T07:53:48.798Z,272.00
2018-12-12T07:54:48.971Z,272.00
2018-12-12T07:55:49.146Z,284.00
2018-12-12T07:56:49.314Z,304.00
2018-12-12T07:57:49.490Z,312.00
2018-12-12T07:58:49.655Z,324.00
2018-12-12T07:59:49.834Z,344.00
2018-12-12T08:00:50.003Z,356.00
2018-12-12T08:01:50.181Z,380.00
2018-12-12T08:02:50.350Z,400.00
2018-12-12T08:03:50.523Z,416.00
2018-12-12T08:04:50.694Z,432.00
2018-12-12T08:05:50.866Z,444.00
2018-12-12T08:06:51.040Z,460.00
2018-12-12T08:07:51.208Z,472.00
2018-12-12T08:08:51.396Z,476.00
2018-12-12T08:09:51.545Z,480.00
2018-12-12T08:10:51.736Z,484.00
2018-12-12T08:11:51.897Z,492.00
2018-12-12T08:12:52.063Z,492.00
2018-12-12T08:13:52.237Z,488.00
2018-12-12T08:14:52.420Z,472.00
2018-12-12T08:15:52.583Z,464.00
2018-12-12T08:16:52.729Z,476.00
2018-12-12T08:17:52.902Z,480.00
2018-12-12T08:18:53.074Z,480.00
2018-12-12T08:19:53.247Z,484.00
2018-12-12T08:20:53.416Z,476.00
2018-12-12T08:21:53.595Z,468.00
2018-12-12T08:22:53.759Z,468.00
2018-12-12T08:23:53.938Z,464.00
2018-12-12T08:24:54.093Z,460.00
2018-12-12T08:25:54.266Z,452.00
2018-12-12T08:26:54.442Z,452.00
2018-12-12T08:27:54.608Z,460.00
2018-12-12T08:28:54.777Z,468.00
2018-12-12T08:29:54.957Z,484.00
2018-12-12T08:30:55.123Z,496.00
2018-12-12T08:31:55.302Z,508.00
2018-12-12T08:32:55.474Z,524.00
2018-12-12T08:33:55.644Z,536.00
2018-12-12T08:34:55.817Z,552.00
2018-12-12T08:35:55.991Z,556.00
2018-12-12T08:36:56.174Z,560.00
2018-12-12T08:37:56.334Z,556.00
2018-12-12T08:38:56.525Z,556.00
2018-12-12T08:39:56.678Z,556.00
2018-12-12T08:40:56.853Z,560.00
2018-12-12T08:41:57.029Z,560.00
2018-12-12T08:42:57.192Z,572.00
2018-12-12T08:43:57.374Z,592.00
2018-12-12T08:44:57.537Z,612.00
2018-12-12T08:45:57.705Z,632.00
2018-12-12T08:46:57.878Z,660.00
2018-12-12T08:47:58.055Z,700.00
2018-12-12T08:48:58.232Z,744.00
2018-12-12T08:49:58.397Z,780.00
2018-12-12T08:50:58.572Z,820.00
2018-12-12T08:51:58.756Z,856.00
2018-12-12T08:52:58.915Z,892.00
2018-12-12T08:53:59.088Z,912.00
2018-12-12T08:54:59.258Z,920.00
2018-12-12T08:55:59.431Z,928.00
2018-12-12T08:56:59.596Z,920.00
2018-12-12T08:57:59.761Z,880.00
2018-12-12T08:58:59.939Z,856.00
2018-12-12T09:00:00.113Z,880.00
2018-12-12T09:01:00.278Z,876.00
2018-12-12T09:02:00.462Z,856.00
2018-12-12T09:03:00.626Z,844.00
2018-12-12T09:04:00.783Z,844.00
2018-12-12T09:05:00.959Z,816.00
2018-12-12T09:06:01.140Z,752.00
2018-12-12T09:07:01.304Z,696.00
2018-12-12T09:08:01.474Z,652.00
2018-12-12T09:09:01.646Z,596.00
2018-12-12T09:10:01.818Z,532.00
2018-12-12T09:11:01.995Z,512.00
2018-12-12T09:12:02.167Z,500.00
2018-12-12T09:13:02.349Z,500.00
2018-12-12T09:14:02.506Z,516.00
2018-12-12T09:15:02.679Z,536.00
2018-12-12T09:16:02.845Z,544.00
2018-12-12T09:17:09.470Z,556.00
2018-12-12T09:18:03.210Z,580.00
2018-12-12T09:19:03.358Z,636.00
2018-12-12T09:20:03.540Z,712.00
2018-12-12T09:21:03.707Z,780.00
2018-12-12T09:22:03.875Z,824.00
2018-12-12T09:23:04.072Z,864.00
2018-12-12T09:24:04.222Z,904.00
2018-12-12T09:25:04.401Z,944.00
2018-12-12T09:26:04.561Z,992.00
2018-12-12T09:27:04.724Z,1032.00
2018-12-12T09:28:04.913Z,1084.00
2018-12-12T09:29:05.112Z,1140.00
2018-12-12T09:30:05.244Z,1188.00
2018-12-12T09:31:05.415Z,1228.00
2018-12-12T09:32:05.594Z,1248.00
2018-12-12T09:33:05.765Z,1284.00
2018-12-12T09:34:05.924Z,1320.00
2018-12-12T09:35:06.106Z,1340.00
2018-12-12T09:36:06.279Z,1336.00
2018-12-12T09:37:06.447Z,1336.00
2018-12-12T09:38:06.621Z,1348.00
2018-12-12T09:39:07.632Z,1392.00
2018-12-12T09:40:06.961Z,1456.00
2018-12-12T09:41:07.131Z,1476.00
2018-12-12T09:42:07.304Z,1484.00
2018-12-12T09:43:07.477Z,1488.00
2018-12-12T09:44:07.645Z,1484.00
2018-12-12T09:45:07.820Z,1472.00
2018-12-12T09:46:07.991Z,1456.00
2018-12-12T09:47:08.168Z,1444.00
2018-12-12T09:48:08.341Z,1456.00
2018-12-12T09:49:08.543Z,1492.00
2018-12-12T09:50:08.719Z,1536.00
2018-12-12T09:51:08.904Z,1588.00
2018-12-12T09:52:09.101Z,1656.00
2018-12-12T09:53:09.272Z,1668.00
2018-12-12T09:54:09.428Z,1644.00
2018-12-12T09:55:09.591Z,1640.00
2018-12-12T09:56:10.950Z,1640.00
2018-12-12T09:57:09.937Z,1632.00
2018-12-12T09:58:10.111Z,1584.00
2018-12-12T09:59:10.291Z,1540.00
2018-12-12T10:00:10.457Z,1516.00
2018-12-12T10:01:10.707Z,1436.00
2018-12-12T10:02:10.834Z,1376.00
2018-12-12T10:03:11.020Z,1380.00
2018-12-12T10:04:11.177Z,1448.00
2018-12-12T10:06:11.516Z,1732.00
2018-12-12T10:07:11.687Z,1848.00
2018-12-12T10:08:11.877Z,1936.00
2018-12-12T10:09:12.035Z,2032.00
2018-12-12T10:10:12.207Z,2076.00
2018-12-12T10:11:12.380Z,2040.00
2018-12-12T10:12:12.553Z,2024.00
2018-12-12T10:13:12.724Z,2024.00
2018-12-12T10:14:12.904Z,2052.00
2018-12-12T10:15:13.082Z,2096.00
2018-12-12T10:16:13.249Z,2164.00
2018-12-12T10:17:13.419Z,2212.00
2018-12-12T10:18:13.608Z,2220.00
2018-12-12T10:19:13.773Z,2236.00
2018-12-12T10:20:13.945Z,2284.00
2018-12-12T10:21:14.129Z,2316.00
2018-12-12T10:22:14.317Z,2332.00
2018-12-12T10:23:14.496Z,2348.00
2018-12-12T10:24:14.661Z,2328.00
2018-12-12T10:25:14.835Z,2340.00
2018-12-12T10:26:15.012Z,2296.00
2018-12-12T10:27:15.183Z,2252.00
2018-12-12T10:28:15.375Z,2232.00
2018-12-12T10:29:15.532Z,2220.00
2018-12-12T10:30:15.712Z,2232.00
2018-12-12T10:31:15.884Z,2272.00
2018-12-12T10:32:16.069Z,2344.00
2018-12-12T10:33:16.229Z,2340.00
2018-12-12T10:34:16.410Z,2316.00
2018-12-12T10:35:16.586Z,2264.00
2018-12-12T10:36:16.750Z,2220.00
2018-12-12T10:37:16.924Z,2192.00
2018-12-12T10:38:17.103Z,2172.00
2018-12-12T10:39:17.273Z,2136.00
2018-12-12T10:40:17.439Z,2124.00
2018-12-12T10:41:17.615Z,2108.00
2018-12-12T10:42:17.801Z,2104.00
2018-12-12T10:43:17.957Z,2088.00
2018-12-12T10:44:18.119Z,2104.00
2018-12-12T10:45:18.297Z,2144.00
2018-12-12T10:46:18.468Z,2168.00
2018-12-12T10:47:18.639Z,2208.00
2018-12-12T10:48:18.834Z,2244.00
2018-12-12T10:49:19.008Z,2240.00
2018-12-12T10:50:19.998Z,2220.00
2018-12-12T10:51:19.332Z,2176.00
2018-12-12T10:52:19.503Z,2160.00
2018-12-12T10:53:19.673Z,2108.00
2018-12-12T10:54:19.856Z,2044.00
2018-12-12T10:55:20.019Z,2024.00
2018-12-12T10:56:20.191Z,2008.00
2018-12-12T10:57:20.363Z,2000.00
2018-12-12T10:58:20.547Z,1984.00
2018-12-12T10:59:20.711Z,1976.00
2018-12-12T11:00:20.890Z,1960.00
2018-12-12T11:01:21.059Z,1912.00
2018-12-12T11:02:21.245Z,1880.00
2018-12-12T11:03:21.413Z,1904.00
2018-12-12T11:04:21.593Z,1888.00
2018-12-12T11:05:21.762Z,1812.00
2018-12-12T11:06:21.936Z,1760.00
2018-12-12T11:07:22.120Z,1772.00
2018-12-12T11:08:22.289Z,1812.00
2018-12-12T11:09:22.456Z,1804.00
2018-12-12T11:10:22.628Z,1748.00
2018-12-12T11:11:22.796Z,1712.00
2018-12-12T11:12:22.964Z,1704.00
2018-12-12T11:13:23.140Z,1628.00
2018-12-12T11:14:23.312Z,1616.00
2018-12-12T11:15:23.481Z,1712.00
2018-12-12T11:16:23.649Z,1792.00
2018-12-12T11:17:23.878Z,1808.00
2018-12-12T11:18:23.978Z,1780.00
2018-12-12T11:19:24.148Z,1688.00
2018-12-12T11:20:24.326Z,1552.00
2018-12-12T11:21:24.505Z,1444.00
2018-12-12T11:22:24.672Z,1412.00
2018-12-12T11:23:24.844Z,1440.00
2018-12-12T11:24:25.010Z,1488.00
2018-12-12T11:25:25.201Z,1548.00
2018-12-12T11:26:25.349Z,1672.00
2018-12-12T11:27:25.526Z,1800.00
2018-12-12T11:28:25.698Z,1764.00
2018-12-12T11:29:25.876Z,1688.00
2018-12-12T11:30:26.047Z,1664.00
2018-12-12T11:31:26.227Z,1688.00
2018-12-12T11:32:26.396Z,1692.00
2018-12-12T11:33:26.582Z,1644.00
2018-12-12T11:34:26.737Z,1560.00
2018-12-12T11:35:26.919Z,1576.00
2018-12-12T11:36:27.087Z,1640.00
2018-12-12T11:37:27.273Z,1692.00
2018-12-12T11:38:27.440Z,1744.00
2018-12-12T11:39:27.617Z,1796.00
2018-12-12T11:40:27.786Z,1816.00
2018-12-12T11:41:27.969Z,1792.00
2018-12-12T11:42:28.149Z,1768.00
2018-12-12T11:43:28.308Z,1700.00
2018-12-12T11:44:28.482Z,1684.00
2018-12-12T11:45:28.658Z,1732.00
2018-12-12T11:46:28.837Z,1732.00
2018-12-12T11:47:29.027Z,1720.00
2018-12-12T11:48:29.160Z,1684.00
2018-12-12T11:49:29.324Z,1620.00
2018-12-12T11:50:29.503Z,1652.00
2018-12-12T11:51:29.699Z,1676.00
2018-12-12T11:52:29.852Z,1608.00
2018-12-12T11:53:30.032Z,1540.00
2018-12-12T11:54:30.199Z,1480.00
2018-12-12T11:55:30.392Z,1344.00
2018-12-12T11:56:30.529Z,1248.00
2018-12-12T11:57:31.519Z,1196.00
2018-12-12T11:58:30.874Z,1180.00
2018-12-12T11:59:31.047Z,1192.00
2018-12-12T12:00:31.221Z,1156.00
2018-12-12T12:01:31.408Z,1100.00
2018-12-12T12:02:35.522Z,1024.00
2018-12-12T12:03:31.773Z,956.00
2018-12-12T12:04:31.929Z,948.00
2018-12-12T12:05:32.101Z,984.00
2018-12-12T12:06:32.273Z,1028.00
2018-12-12T12:07:32.464Z,1064.00
2018-12-12T12:08:32.615Z,1052.00
2018-12-12T12:09:32.793Z,1004.00
2018-12-12T12:10:32.957Z,948.00
2018-12-12T12:11:33.131Z,912.00
2018-12-12T12:12:33.305Z,900.00
2018-12-12T12:13:33.473Z,912.00
2018-12-12T12:14:33.663Z,976.00
2018-12-12T12:15:33.839Z,1048.00
2018-12-12T12:16:34.009Z,1112.00
2018-12-12T12:17:34.180Z,1124.00
2018-12-12T12:18:34.350Z,1108.00
2018-12-12T12:19:34.522Z,1100.00
2018-12-12T12:20:34.691Z,1080.00
2018-12-12T12:21:35.034Z,1052.00
2018-12-12T12:22:34.998Z,1028.00
2018-12-12T12:23:35.166Z,1008.00
2018-12-12T12:24:35.338Z,960.00
2018-12-12T12:25:35.516Z,912.00
2018-12-12T12:26:35.685Z,876.00
2018-12-12T12:27:35.864Z,848.00
2018-12-12T12:28:36.026Z,832.00
2018-12-12T12:29:36.196Z,836.00
2018-12-12T12:30:36.372Z,840.00
2018-12-12T12:31:36.528Z,840.00
2018-12-12T12:32:36.736Z,832.00
2018-12-12T12:33:36.904Z,824.00
2018-12-12T12:34:37.077Z,812.00
2018-12-12T12:35:37.246Z,792.00
2018-12-12T12:36:37.418Z,784.00
2018-12-12T12:37:37.630Z,780.00
2018-12-12T12:38:37.766Z,796.00
2018-12-12T12:39:37.930Z,824.00
2018-12-12T12:40:38.106Z,860.00
2018-12-12T12:41:38.281Z,888.00
2018-12-12T12:42:38.432Z,904.00
2018-12-12T12:43:38.585Z,908.00
2018-12-12T12:44:38.769Z,892.00
2018-12-12T12:45:38.941Z,876.00
2018-12-12T12:46:39.113Z,872.00
2018-12-12T12:47:39.287Z,896.00
2018-12-12T12:48:39.469Z,932.00
2018-12-12T12:49:39.631Z,944.00
2018-12-12T12:50:39.806Z,928.00
2018-12-12T12:51:39.998Z,908.00
2018-12-12T12:52:40.164Z,892.00
2018-12-12T12:53:40.333Z,904.00
2018-12-12T12:54:40.514Z,940.00
2018-12-12T12:55:40.691Z,932.00